sensor_id;sensor_type;location;lat;lon;timestamp;pressure;altitude;pressure_sealevel;temperature;humidity
60244;BME280;46106;51.468;5.814;2023-02-19T00:01:42;101474.03;;;10.50;100.00
60244;BME280;46106;51.468;5.814;2023-02-19T00:04:16;101473.28;;;10.48;100.00
60244;BME280;46106;51.468;5.814;2023-02-19T00:06:42;101467.25;;;10.43;100.00
60244;BME280;46106;51.468;5.814;2023-02-19T00:09:12;101462.06;;;10.38;100.00
60244;BME280;46106;51.468;5.814;2023-02-19T00:11:38;101464.50;;;10.43;100.00
60244;BME280;46106;51.468;5.814;2023-02-19T00:14:05;101453.66;;;10.41;100.00
60244;BME280;46106;51.468;5.814;2023-02-19T00:16:36;101448.97;;;10.29;100.00
60244;BME280;46106;51.468;5.814;2023-02-19T00:19:04;101455.94;;;10.35;100.00
60244;BME280;46106;51.468;5.814;2023-02-19T00:21:30;101462.06;;;10.38;100.00
60244;BME280;46106;51.468;5.814;2023-02-19T00:23:58;101456.53;;;10.25;100.00
60244;BME280;46106;51.468;5.814;2023-02-19T00:26:25;101451.25;;;10.22;100.00
60244;BME280;46106;51.468;5.814;2023-02-19T00:28:51;101440.63;;;10.18;100.00
60244;BME280;46106;51.468;5.814;2023-02-19T00:31:36;101445.22;;;10.17;100.00
60244;BME280;46106;51.468;5.814;2023-02-19T00:34:04;101450.56;;;10.33;100.00
60244;BME280;46106;51.468;5.814;2023-02-19T00:36:30;101454.34;;;10.30;100.00
60244;BME280;46106;51.468;5.814;2023-02-19T00:38:57;101457.09;;;10.30;100.00
60244;BME280;46106;51.468;5.814;2023-02-19T00:41:23;101463.34;;;10.33;100.00
60244;BME280;46106;51.468;5.814;2023-02-19T00:43:56;101458.03;;;10.44;100.00
60244;BME280;46106;51.468;5.814;2023-02-19T00:48:58;101443.03;;;10.22;100.00
60244;BME280;46106;51.468;5.814;2023-02-19T00:51:26;101450.78;;;10.16;100.00
60244;BME280;46106;51.468;5.814;2023-02-19T00:53:53;101453.63;;;10.14;100.00
60244;BME280;46106;51.468;5.814;2023-02-19T00:56:19;101451.34;;;10.21;100.00
60244;BME280;46106;51.468;5.814;2023-02-19T00:58:44;101444.81;;;10.23;100.00
60244;BME280;46106;51.468;5.814;2023-02-19T01:01:10;101447.22;;;10.28;100.00
60244;BME280;46106;51.468;5.814;2023-02-19T01:03:36;101460.03;;;10.27;100.00
60244;BME280;46106;51.468;5.814;2023-02-19T01:06:02;101466.38;;;10.28;100.00
60244;BME280;46106;51.468;5.814;2023-02-19T01:08:28;101465.69;;;10.24;100.00
60244;BME280;46106;51.468;5.814;2023-02-19T01:10:56;101466.50;;;10.26;100.00
60244;BME280;46106;51.468;5.814;2023-02-19T01:13:22;101464.84;;;10.24;100.00
60244;BME280;46106;51.468;5.814;2023-02-19T01:15:47;101467.56;;;10.24;100.00
60244;BME280;46106;51.468;5.814;2023-02-19T01:18:13;101470.97;;;10.27;100.00
60244;BME280;46106;51.468;5.814;2023-02-19T01:20:43;101466.16;;;10.31;100.00
60244;BME280;46106;51.468;5.814;2023-02-19T01:23:10;101473.88;;;10.39;100.00
60244;BME280;46106;51.468;5.814;2023-02-19T01:25:40;101477.69;;;10.36;100.00
60244;BME280;46106;51.468;5.814;2023-02-19T01:28:07;101476.44;;;10.27;100.00
60244;BME280;46106;51.468;5.814;2023-02-19T01:30:37;101486.16;;;10.33;100.00
60244;BME280;46106;51.468;5.814;2023-02-19T01:33:06;101483.59;;;10.30;100.00
60244;BME280;46106;51.468;5.814;2023-02-19T01:35:32;101480.75;;;10.32;100.00
60244;BME280;46106;51.468;5.814;2023-02-19T01:37:58;101482.69;;;10.29;100.00
60244;BME280;46106;51.468;5.814;2023-02-19T01:40:24;101496.88;;;10.36;100.00
60244;BME280;46106;51.468;5.814;2023-02-19T01:42:50;101488.78;;;10.35;100.00
60244;BME280;46106;51.468;5.814;2023-02-19T01:45:26;101497.00;;;10.35;100.00
60244;BME280;46106;51.468;5.814;2023-02-19T01:48:05;101493.16;;;10.37;100.00
60244;BME280;46106;51.468;5.814;2023-02-19T01:50:37;101493.34;;;10.34;100.00
60244;BME280;46106;51.468;5.814;2023-02-19T01:53:06;101490.53;;;10.36;100.00
60244;BME280;46106;51.468;5.814;2023-02-19T01:55:33;101497.38;;;10.28;100.00
60244;BME280;46106;51.468;5.814;2023-02-19T01:58:00;101488.78;;;10.35;100.00
60244;BME280;46106;51.468;5.814;2023-02-19T02:00:26;101508.72;;;10.37;100.00
60244;BME280;46106;51.468;5.814;2023-02-19T02:02:54;101501.56;;;10.34;100.00
60244;BME280;46106;51.468;5.814;2023-02-19T02:05:50;101497.44;;;10.41;100.00
60244;BME280;46106;51.468;5.814;2023-02-19T02:08:19;101492.97;;;10.26;100.00
60244;BME280;46106;51.468;5.814;2023-02-19T02:11:04;101495.59;;;10.27;100.00
60244;BME280;46106;51.468;5.814;2023-02-19T02:13:32;101494.84;;;10.25;100.00
60244;BME280;46106;51.468;5.814;2023-02-19T02:16:44;101500.41;;;10.24;100.00
60244;BME280;46106;51.468;5.814;2023-02-19T02:22:06;101495.16;;;10.21;100.00
60244;BME280;46106;51.468;5.814;2023-02-19T02:24:59;101492.88;;;10.27;100.00
60244;BME280;46106;51.468;5.814;2023-02-19T02:27:53;101497.56;;;10.25;100.00
60244;BME280;46106;51.468;5.814;2023-02-19T02:36:07;101490.72;;;10.33;100.00
60244;BME280;46106;51.468;5.814;2023-02-19T02:38:37;101490.78;;;10.31;100.00
60244;BME280;46106;51.468;5.814;2023-02-19T02:41:05;101490.72;;;10.33;100.00
60244;BME280;46106;51.468;5.814;2023-02-19T02:43:31;101495.50;;;10.29;100.00
60244;BME280;46106;51.468;5.814;2023-02-19T02:45:57;101493.88;;;10.26;100.00
60244;BME280;46106;51.468;5.814;2023-02-19T02:48:33;101498.44;;;10.26;100.00
60244;BME280;46106;51.468;5.814;2023-02-19T02:51:16;101495.69;;;10.26;100.00
60244;BME280;46106;51.468;5.814;2023-02-19T02:54:03;101497.38;;;10.28;100.00
60244;BME280;46106;51.468;5.814;2023-02-19T02:56:50;101501.94;;;10.28;100.00
60244;BME280;46106;51.468;5.814;2023-02-19T02:59:22;101494.94;;;10.24;100.00
60244;BME280;46106;51.468;5.814;2023-02-19T03:10:12;101513.34;;;10.22;100.00
60244;BME280;46106;51.468;5.814;2023-02-19T03:12:41;101514.50;;;10.18;100.00
60244;BME280;46106;51.468;5.814;2023-02-19T03:15:34;101507.16;;;10.18;100.00
60244;BME280;46106;51.468;5.814;2023-02-19T03:18:22;101515.28;;;10.20;100.00
60244;BME280;46106;51.468;5.814;2023-02-19T03:21:08;101511.88;;;10.16;100.00
60244;BME280;46106;51.468;5.814;2023-02-19T03:23:34;101519.00;;;10.19;100.00
60244;BME280;46106;51.468;5.814;2023-02-19T03:26:20;101525.53;;;10.16;100.00
60244;BME280;46106;51.468;5.814;2023-02-19T03:28:49;101529.94;;;10.19;100.00
60244;BME280;46106;51.468;5.814;2023-02-19T03:31:37;101531.91;;;10.17;100.00
60244;BME280;46106;51.468;5.814;2023-02-19T03:34:07;101547.06;;;10.08;100.00
60244;BME280;46106;51.468;5.814;2023-02-19T03:36:39;101539.63;;;10.10;100.00
60244;BME280;46106;51.468;5.814;2023-02-19T03:39:07;101512.22;;;9.97;100.00
60244;BME280;46106;51.468;5.814;2023-02-19T03:46:45;101548.56;;;9.99;100.00
60244;BME280;46106;51.468;5.814;2023-02-19T03:49:28;101536.47;;;9.89;100.00
60244;BME280;46106;51.468;5.814;2023-02-19T03:54:56;101545.84;;;9.85;100.00
60244;BME280;46106;51.468;5.814;2023-02-19T04:00:17;101561.59;;;9.81;100.00
60244;BME280;46106;51.468;5.814;2023-02-19T04:03:01;101557.75;;;9.84;100.00
60244;BME280;46106;51.468;5.814;2023-02-19T04:05:32;101567.06;;;9.81;100.00
60244;BME280;46106;51.468;5.814;2023-02-19T04:08:05;101580.63;;;9.83;100.00
60244;BME280;46106;51.468;5.814;2023-02-19T04:10:33;101581.59;;;9.82;100.00
60244;BME280;46106;51.468;5.814;2023-02-19T04:13:04;101577.69;;;9.86;100.00
60244;BME280;46106;51.468;5.814;2023-02-19T04:15:32;101581.09;;;9.89;100.00
60244;BME280;46106;51.468;5.814;2023-02-19T04:18:06;101592.25;;;9.86;100.00
60244;BME280;46106;51.468;5.814;2023-02-19T04:20:38;101587.44;;;9.75;100.00
60244;BME280;46106;51.468;5.814;2023-02-19T04:23:06;101593.81;;;9.76;100.00
60244;BME280;46106;51.468;5.814;2023-02-19T04:25:32;101595.16;;;9.69;100.00
60244;BME280;46106;51.468;5.814;2023-02-19T04:28:00;101594.31;;;9.68;100.00
60244;BME280;46106;51.468;5.814;2023-02-19T04:30:25;101598.81;;;9.69;100.00
60244;BME280;46106;51.468;5.814;2023-02-19T04:32:51;101598.19;;;9.79;100.00
60244;BME280;46106;51.468;5.814;2023-02-19T04:35:16;101610.63;;;9.84;100.00
60244;BME280;46106;51.468;5.814;2023-02-19T04:37:42;101603.09;;;9.88;100.00
60244;BME280;46106;51.468;5.814;2023-02-19T04:40:08;101603.28;;;9.85;100.00
60244;BME280;46106;51.468;5.814;2023-02-19T04:42:34;101619.41;;;9.89;100.00
60244;BME280;46106;51.468;5.814;2023-02-19T04:44:59;101621.06;;;9.78;100.00
60244;BME280;46106;51.468;5.814;2023-02-19T04:47:24;101611.88;;;9.79;100.00
60244;BME280;46106;51.468;5.814;2023-02-19T04:49:50;101621.47;;;9.86;100.00
60244;BME280;46106;51.468;5.814;2023-02-19T04:52:15;101628.47;;;9.75;100.00
60244;BME280;46106;51.468;5.814;2023-02-19T04:54:41;101632.88;;;9.78;100.00
60244;BME280;46106;51.468;5.814;2023-02-19T04:57:06;101634.84;;;9.76;100.00
60244;BME280;46106;51.468;5.814;2023-02-19T04:59:31;101621.06;;;9.63;100.00
60244;BME280;46106;51.468;5.814;2023-02-19T05:01:57;101641.00;;;9.80;100.00
60244;BME280;46106;51.468;5.814;2023-02-19T05:04:23;101628.28;;;9.64;100.00
60244;BME280;46106;51.468;5.814;2023-02-19T05:06:49;101640.78;;;9.68;100.00
60244;BME280;46106;51.468;5.814;2023-02-19T05:09:15;101660.03;;;9.81;100.00
60244;BME280;46106;51.468;5.814;2023-02-19T05:11:40;101650.75;;;9.69;100.00
60244;BME280;46106;51.468;5.814;2023-02-19T05:14:06;101656.00;;;9.58;100.00
60244;BME280;46106;51.468;5.814;2023-02-19T05:16:31;101665.69;;;9.64;100.00
60244;BME280;46106;51.468;5.814;2023-02-19T05:18:57;101665.09;;;9.59;100.00
60244;BME280;46106;51.468;5.814;2023-02-19T05:21:23;101663.63;;;9.67;100.00
60244;BME280;46106;51.468;5.814;2023-02-19T05:23:49;101674.38;;;9.70;100.00
60244;BME280;46106;51.468;5.814;2023-02-19T05:26:17;101676.34;;;9.68;100.00
60244;BME280;46106;51.468;5.814;2023-02-19T05:28:47;101682.19;;;9.62;100.00
60244;BME280;46106;51.468;5.814;2023-02-19T05:31:13;101687.63;;;9.62;100.00
60244;BME280;46106;51.468;5.814;2023-02-19T05:33:39;101688.53;;;9.63;100.00
60244;BME280;46106;51.468;5.814;2023-02-19T05:36:09;101686.09;;;9.58;100.00
60244;BME280;46106;51.468;5.814;2023-02-19T05:38:35;101685.00;;;9.46;100.00
60244;BME280;46106;51.468;5.814;2023-02-19T05:43:36;101684.91;;;9.48;100.00
60244;BME280;46106;51.468;5.814;2023-02-19T05:46:02;101685.19;;;9.43;100.00
60244;BME280;46106;51.468;5.814;2023-02-19T05:48:28;101685.19;;;9.43;100.00
60244;BME280;46106;51.468;5.814;2023-02-19T05:50:53;101683.41;;;9.42;100.00
60244;BME280;46106;51.468;5.814;2023-02-19T05:53:18;101687.09;;;9.41;100.00
60244;BME280;46106;51.468;5.814;2023-02-19T05:55:44;101684.50;;;9.40;100.00
60244;BME280;46106;51.468;5.814;2023-02-19T05:58:09;101691.88;;;9.37;100.00
60244;BME280;46106;51.468;5.814;2023-02-19T06:00:35;101697.66;;;9.47;100.00
60244;BME280;46106;51.468;5.814;2023-02-19T06:03:00;101706.22;;;9.41;100.00
60244;BME280;46106;51.468;5.814;2023-02-19T06:05:26;101695.59;;;9.36;100.00
60244;BME280;46106;51.468;5.814;2023-02-19T06:07:51;101679.56;;;9.30;100.00
60244;BME280;46106;51.468;5.814;2023-02-19T06:10:17;101677.25;;;9.38;100.00
60244;BME280;46106;51.468;5.814;2023-02-19T06:12:43;101695.84;;;9.48;100.00
60244;BME280;46106;51.468;5.814;2023-02-19T06:15:08;101699.72;;;9.44;100.00
60244;BME280;46106;51.468;5.814;2023-02-19T06:17:34;101695.22;;;9.43;100.00
60244;BME280;46106;51.468;5.814;2023-02-19T06:19:59;101697.63;;;9.33;100.00
60244;BME280;46106;51.468;5.814;2023-02-19T06:22:25;101712.19;;;9.33;100.00
60244;BME280;46106;51.468;5.814;2023-02-19T06:24:50;101696.34;;;9.24;100.00
60244;BME280;46106;51.468;5.814;2023-02-19T06:27:16;101709.03;;;9.25;100.00
60244;BME280;46106;51.468;5.814;2023-02-19T06:29:41;101709.22;;;9.22;100.00
60244;BME280;46106;51.468;5.814;2023-02-19T06:32:07;101717.31;;;9.24;100.00
60244;BME280;46106;51.468;5.814;2023-02-19T06:34:33;101711.00;;;9.07;100.00
60244;BME280;46106;51.468;5.814;2023-02-19T06:36:58;101722.63;;;9.11;100.00
60244;BME280;46106;51.468;5.814;2023-02-19T06:39:24;101730.19;;;9.22;100.00
60244;BME280;46106;51.468;5.814;2023-02-19T06:41:50;101731.06;;;9.22;100.00
60244;BME280;46106;51.468;5.814;2023-02-19T06:44:15;101740.97;;;9.09;100.00
60244;BME280;46106;51.468;5.814;2023-02-19T06:46:41;101743.53;;;9.12;100.00
60244;BME280;46106;51.468;5.814;2023-02-19T06:49:06;101756.28;;;9.11;100.00
60244;BME280;46106;51.468;5.814;2023-02-19T06:51:32;101761.06;;;9.08;100.00
60244;BME280;46106;51.468;5.814;2023-02-19T06:53:58;101749.25;;;9.07;100.00
60244;BME280;46106;51.468;5.814;2023-02-19T06:56:35;101767.22;;;9.11;100.00
60244;BME280;46106;51.468;5.814;2023-02-19T06:59:03;101773.03;;;9.21;100.00
60244;BME280;46106;51.468;5.814;2023-02-19T07:01:31;101767.81;;;9.32;100.00
60244;BME280;46106;51.468;5.814;2023-02-19T07:03:57;101769.59;;;9.17;100.00
60244;BME280;46106;51.468;5.814;2023-02-19T07:06:24;101765.81;;;9.20;100.00
60244;BME280;46106;51.468;5.814;2023-02-19T07:08:50;101773.19;;;9.18;100.00
60244;BME280;46106;51.468;5.814;2023-02-19T07:11:16;101776.91;;;9.17;100.00
60244;BME280;46106;51.468;5.814;2023-02-19T07:13:43;101772.16;;;9.20;100.00
60244;BME280;46106;51.468;5.814;2023-02-19T07:16:09;101787.94;;;9.31;100.00
60244;BME280;46106;51.468;5.814;2023-02-19T07:18:36;101782.72;;;9.27;100.00
60244;BME280;46106;51.468;5.814;2023-02-19T07:21:12;101791.97;;;9.24;100.00
60244;BME280;46106;51.468;5.814;2023-02-19T07:23:38;101796.66;;;9.22;100.00
60244;BME280;46106;51.468;5.814;2023-02-19T07:26:07;101803.91;;;9.23;100.00
60244;BME280;46106;51.468;5.814;2023-02-19T07:28:33;101800.34;;;9.21;100.00
60244;BME280;46106;51.468;5.814;2023-02-19T07:31:00;101813.75;;;9.26;100.00
60244;BME280;46106;51.468;5.814;2023-02-19T07:33:25;101798.44;;;9.23;100.00
60244;BME280;46106;51.468;5.814;2023-02-19T07:35:51;101822.56;;;9.31;100.00
60244;BME280;46106;51.468;5.814;2023-02-19T07:38:17;101833.31;;;9.34;100.00
60244;BME280;46106;51.468;5.814;2023-02-19T07:41:10;101821.84;;;9.11;100.00
60244;BME280;46106;51.468;5.814;2023-02-19T07:43:37;101830.56;;;9.18;100.00
60244;BME280;46106;51.468;5.814;2023-02-19T07:46:10;101844.69;;;9.10;100.00
60244;BME280;46106;51.468;5.814;2023-02-19T07:48:37;101837.63;;;9.06;100.00
60244;BME280;46106;51.468;5.814;2023-02-19T07:51:04;101843.00;;;9.08;100.00
60244;BME280;46106;51.468;5.814;2023-02-19T07:53:32;101848.31;;;9.11;100.00
60244;BME280;46106;51.468;5.814;2023-02-19T07:56:00;101860.09;;;9.11;100.00
60244;BME280;46106;51.468;5.814;2023-02-19T07:58:26;101853.75;;;9.11;100.00
60244;BME280;46106;51.468;5.814;2023-02-19T08:00:52;101858.53;;;9.07;100.00
60244;BME280;46106;51.468;5.814;2023-02-19T08:03:17;101864.94;;;9.06;100.00
60244;BME280;46106;51.468;5.814;2023-02-19T08:05:43;101868.13;;;9.14;100.00
60244;BME280;46106;51.468;5.814;2023-02-19T08:08:12;101884.09;;;9.22;100.00
60244;BME280;46106;51.468;5.814;2023-02-19T08:10:38;101884.25;;;9.19;100.00
60244;BME280;46106;51.468;5.814;2023-02-19T08:13:23;101879.84;;;9.00;100.00
60244;BME280;46106;51.468;5.814;2023-02-19T08:15:54;101891.56;;;9.02;100.00
60244;BME280;46106;51.468;5.814;2023-02-19T08:18:25;101900.38;;;9.08;100.00
60244;BME280;46106;51.468;5.814;2023-02-19T08:20:52;101904.72;;;9.12;100.00
60244;BME280;46106;51.468;5.814;2023-02-19T08:23:18;101887.41;;;8.95;100.00
60244;BME280;46106;51.468;5.814;2023-02-19T08:25:47;101906.19;;;9.01;100.00
60244;BME280;46106;51.468;5.814;2023-02-19T08:28:14;101902.66;;;8.99;100.00
60244;BME280;46106;51.468;5.814;2023-02-19T08:30:41;101885.66;;;8.94;100.00
60244;BME280;46106;51.468;5.814;2023-02-19T08:33:09;101905.47;;;8.98;100.00
60244;BME280;46106;51.468;5.814;2023-02-19T08:35:36;101907.50;;;8.94;100.00
60244;BME280;46106;51.468;5.814;2023-02-19T08:38:03;101904.84;;;8.93;100.00
60244;BME280;46106;51.468;5.814;2023-02-19T08:40:28;101910.78;;;9.01;100.00
60244;BME280;46106;51.468;5.814;2023-02-19T08:42:54;101907.88;;;9.04;100.00
60244;BME280;46106;51.468;5.814;2023-02-19T08:45:19;101906.47;;;9.13;100.00
60244;BME280;46106;51.468;5.814;2023-02-19T08:47:44;101899.59;;;9.06;100.00
60244;BME280;46106;51.468;5.814;2023-02-19T08:50:11;101909.44;;;9.08;100.00
60244;BME280;46106;51.468;5.814;2023-02-19T08:52:36;101911.69;;;9.17;100.00
60244;BME280;46106;51.468;5.814;2023-02-19T08:55:05;101906.22;;;9.17;100.00
60244;BME280;46106;51.468;5.814;2023-02-19T08:57:31;101914.16;;;9.22;100.00
60244;BME280;46106;51.468;5.814;2023-02-19T08:59:59;101925.94;;;9.23;100.00
60244;BME280;46106;51.468;5.814;2023-02-19T09:02:24;101925.63;;;9.29;100.00
60244;BME280;46106;51.468;5.814;2023-02-19T09:04:50;101937.88;;;9.37;100.00
60244;BME280;46106;51.468;5.814;2023-02-19T09:07:16;101938.75;;;9.54;100.00
60244;BME280;46106;51.468;5.814;2023-02-19T09:09:41;101926.59;;;9.44;100.00
60244;BME280;46106;51.468;5.814;2023-02-19T09:12:09;101934.09;;;9.40;100.00
60244;BME280;46106;51.468;5.814;2023-02-19T09:14:36;101943.16;;;9.41;100.00
60244;BME280;46106;51.468;5.814;2023-02-19T09:17:03;101941.66;;;9.67;100.00
60244;BME280;46106;51.468;5.814;2023-02-19T09:19:29;101941.31;;;9.73;100.00
60244;BME280;46106;51.468;5.814;2023-02-19T09:21:54;101959.50;;;9.74;100.00
60244;BME280;46106;51.468;5.814;2023-02-19T09:24:20;101961.06;;;9.62;100.00
60244;BME280;46106;51.468;5.814;2023-02-19T09:26:53;101935.50;;;9.47;100.00
60244;BME280;46106;51.468;5.814;2023-02-19T09:29:19;101952.94;;;9.61;100.00
60244;BME280;46106;51.468;5.814;2023-02-19T09:31:45;101946.88;;;9.55;100.00
60244;BME280;46106;51.468;5.814;2023-02-19T09:34:11;101927.63;;;9.41;100.00
60244;BME280;46106;51.468;5.814;2023-02-19T09:36:40;101949.34;;;9.60;100.00
60244;BME280;46106;51.468;5.814;2023-02-19T09:39:07;101950.94;;;9.64;100.00
60244;BME280;46106;51.468;5.814;2023-02-19T09:41:38;101950.31;;;9.75;100.00
60244;BME280;46106;51.468;5.814;2023-02-19T09:44:12;101951.44;;;9.87;100.00
60244;BME280;46106;51.468;5.814;2023-02-19T09:46:45;101962.22;;;9.90;100.00
60244;BME280;46106;51.468;5.814;2023-02-19T09:49:16;101960.09;;;9.95;100.00
60244;BME280;46106;51.468;5.814;2023-02-19T09:51:57;101952.44;;;9.86;100.00
60244;BME280;46106;51.468;5.814;2023-02-19T09:54:26;101968.75;;;9.87;100.00
60244;BME280;46106;51.468;5.814;2023-02-19T09:56:54;101969.03;;;9.83;100.00
60244;BME280;46106;51.468;5.814;2023-02-19T09:59:23;101990.25;;;9.93;100.00
60244;BME280;46106;51.468;5.814;2023-02-19T10:01:55;102000.94;;;9.98;100.00
60244;BME280;46106;51.468;5.814;2023-02-19T10:04:23;102007.41;;;9.97;100.00
60244;BME280;46106;51.468;5.814;2023-02-19T10:06:48;102004.59;;;9.99;100.00
60244;BME280;46106;51.468;5.814;2023-02-19T10:15:21;102017.47;;;9.81;100.00
60244;BME280;46106;51.468;5.814;2023-02-19T10:17:49;102022.03;;;9.80;100.00
60244;BME280;46106;51.468;5.814;2023-02-19T10:20:17;102021.59;;;9.72;100.00
60244;BME280;46106;51.468;5.814;2023-02-19T10:22:43;102032.69;;;9.69;100.00
60244;BME280;46106;51.468;5.814;2023-02-19T10:25:14;102038.25;;;9.67;100.00
60244;BME280;46106;51.468;5.814;2023-02-19T10:27:41;102038.63;;;9.77;100.00
60244;BME280;46106;51.468;5.814;2023-02-19T10:30:20;102039.53;;;9.78;100.00
60244;BME280;46106;51.468;5.814;2023-02-19T10:33:09;102054.25;;;9.91;100.00
60244;BME280;46106;51.468;5.814;2023-02-19T10:35:37;102050.66;;;9.90;100.00
60244;BME280;46106;51.468;5.814;2023-02-19T10:38:04;102060.97;;;10.01;100.00
60244;BME280;46106;51.468;5.814;2023-02-19T10:40:31;102057.25;;;10.18;100.00
60244;BME280;46106;51.468;5.814;2023-02-19T10:43:21;102072.56;;;10.38;100.00
60244;BME280;46106;51.468;5.814;2023-02-19T10:45:49;102083.59;;;10.53;100.00
60244;BME280;46106;51.468;5.814;2023-02-19T10:48:23;102080.38;;;10.60;100.00
60244;BME280;46106;51.468;5.814;2023-02-19T10:51:01;102088.59;;;10.60;100.00
60244;BME280;46106;51.468;5.814;2023-02-19T10:53:50;102099.69;;;10.43;100.00
60244;BME280;46106;51.468;5.814;2023-02-19T10:56:27;102087.03;;;10.56;100.00
60244;BME280;46106;51.468;5.814;2023-02-19T11:01:57;102099.75;;;10.41;100.00
60244;BME280;46106;51.468;5.814;2023-02-19T11:04:30;102120.31;;;10.33;100.00
60244;BME280;46106;51.468;5.814;2023-02-19T11:07:10;102113.31;;;10.27;100.00
60244;BME280;46106;51.468;5.814;2023-02-19T11:09:39;102096.28;;;10.22;100.00
60244;BME280;46106;51.468;5.814;2023-02-19T11:12:05;102091.25;;;10.14;100.00
60244;BME280;46106;51.468;5.814;2023-02-19T11:14:33;102110.06;;;10.20;100.00
60244;BME280;46106;51.468;5.814;2023-02-19T11:17:00;102107.78;;;10.28;100.00
60244;BME280;46106;51.468;5.814;2023-02-19T11:19:40;102101.03;;;10.18;100.00
60244;BME280;46106;51.468;5.814;2023-02-19T11:22:40;102099.97;;;10.05;100.00
60244;BME280;46106;51.468;5.814;2023-02-19T11:27:34;102095.66;;;10.01;100.00
60244;BME280;46106;51.468;5.814;2023-02-19T11:30:21;102094.31;;;10.08;100.00
60244;BME280;46106;51.468;5.814;2023-02-19T11:32:51;102081.25;;;10.13;100.00
60244;BME280;46106;51.468;5.814;2023-02-19T11:35:20;102073.56;;;10.20;100.00
60244;BME280;46106;51.468;5.814;2023-02-19T11:40:20;102085.44;;;10.36;100.00
60244;BME280;46106;51.468;5.814;2023-02-19T11:42:55;102088.28;;;10.35;100.00
60244;BME280;46106;51.468;5.814;2023-02-19T11:45:36;102078.69;;;10.26;100.00
60244;BME280;46106;51.468;5.814;2023-02-19T11:50:58;102078.25;;;10.18;100.00
60244;BME280;46106;51.468;5.814;2023-02-19T11:53:28;102078.63;;;10.27;100.00
60244;BME280;46106;51.468;5.814;2023-02-19T11:56:17;102083.84;;;10.48;100.00
60244;BME280;46106;51.468;5.814;2023-02-19T12:07:01;102094.59;;;10.97;100.00
60244;BME280;46106;51.468;5.814;2023-02-19T12:20:12;102078.19;;;10.81;100.00
60244;BME280;46106;51.468;5.814;2023-02-19T12:23:04;102073.13;;;10.90;100.00
60244;BME280;46106;51.468;5.814;2023-02-19T12:36:39;102100.53;;;10.59;100.00
60244;BME280;46106;51.468;5.814;2023-02-19T12:42:06;102086.41;;;10.51;100.00
60244;BME280;46106;51.468;5.814;2023-02-19T12:44:45;102082.00;;;10.48;100.00
60244;BME280;46106;51.468;5.814;2023-02-19T12:47:20;102088.34;;;10.49;100.00
60244;BME280;46106;51.468;5.814;2023-02-19T12:49:50;102084.56;;;10.36;100.00
60244;BME280;46106;51.468;5.814;2023-02-19T12:52:35;102095.16;;;10.42;100.00
60244;BME280;46106;51.468;5.814;2023-02-19T12:55:26;102086.34;;;10.37;100.00
60244;BME280;46106;51.468;5.814;2023-02-19T12:57:54;102090.47;;;10.44;100.00
60244;BME280;46106;51.468;5.814;2023-02-19T13:00:30;102095.41;;;10.53;100.00
60244;BME280;46106;51.468;5.814;2023-02-19T13:03:24;102098.75;;;10.74;100.00
60244;BME280;46106;51.468;5.814;2023-02-19T13:06:24;102098.97;;;10.85;100.00
60244;BME280;46106;51.468;5.814;2023-02-19T13:09:10;102109.88;;;11.01;100.00
60244;BME280;46106;51.468;5.814;2023-02-19T13:11:57;102094.69;;;10.96;100.00
60244;BME280;46106;51.468;5.814;2023-02-19T13:14:28;102115.53;;;10.98;100.00
60244;BME280;46106;51.468;5.814;2023-02-19T13:16:59;102122.00;;;10.97;100.00
60244;BME280;46106;51.468;5.814;2023-02-19T13:19:28;102110.63;;;10.89;100.00
60244;BME280;46106;51.468;5.814;2023-02-19T13:22:02;102113.19;;;10.92;100.00
60244;BME280;46106;51.468;5.814;2023-02-19T13:24:49;102114.34;;;10.88;100.00
60244;BME280;46106;51.468;5.814;2023-02-19T13:30:19;102120.09;;;10.83;100.00
60244;BME280;46106;51.468;5.814;2023-02-19T13:38:00;102126.56;;;10.66;100.00
60244;BME280;46106;51.468;5.814;2023-02-19T13:42:58;102130.75;;;10.42;100.00
60244;BME280;46106;51.468;5.814;2023-02-19T13:45:38;102127.41;;;10.37;100.00
60244;BME280;46106;51.468;5.814;2023-02-19T13:48:27;102152.22;;;10.50;100.00
60244;BME280;46106;51.468;5.814;2023-02-19T13:59:34;102163.00;;;10.53;100.00
60244;BME280;46106;51.468;5.814;2023-02-19T14:04:58;102159.25;;;10.22;100.00
60244;BME280;46106;51.468;5.814;2023-02-19T14:09:56;102161.88;;;10.07;100.00
60244;BME280;46106;51.468;5.814;2023-02-19T14:12:33;102168.59;;;10.18;100.00
60244;BME280;46106;51.468;5.814;2023-02-19T14:15:43;102164.56;;;10.25;100.00
60244;BME280;46106;51.468;5.814;2023-02-19T14:18:40;102162.56;;;10.11;100.00
60244;BME280;46106;51.468;5.814;2023-02-19T14:21:15;102169.38;;;10.20;100.00
60244;BME280;46106;51.468;5.814;2023-02-19T14:23:41;102174.50;;;10.26;100.00
60244;BME280;46106;51.468;5.814;2023-02-19T14:29:29;102197.22;;;9.94;100.00
60244;BME280;46106;51.468;5.814;2023-02-19T14:31:54;102193.00;;;9.89;100.00
60244;BME280;46106;51.468;5.814;2023-02-19T14:34:22;102191.97;;;9.74;100.00
60244;BME280;46106;51.468;5.814;2023-02-19T14:36:56;102199.59;;;9.67;100.00
60244;BME280;46106;51.468;5.814;2023-02-19T14:39:25;102197.94;;;9.65;100.00
60244;BME280;46106;51.468;5.814;2023-02-19T14:42:11;102211.53;;;9.66;100.00
60244;BME280;46106;51.468;5.814;2023-02-19T14:44:49;102205.91;;;9.69;100.00
60244;BME280;46106;51.468;5.814;2023-02-19T14:47:18;102200.19;;;9.74;100.00
60244;BME280;46106;51.468;5.814;2023-02-19T14:52:21;102169.50;;;9.34;100.00
60244;BME280;46106;51.468;5.814;2023-02-19T14:57:29;102186.38;;;9.42;100.00
60244;BME280;46106;51.468;5.814;2023-02-19T14:59:59;102197.97;;;9.30;100.00